createdAt,value
2019-05-22T05:16:55.763Z,115.10
2019-05-22T05:22:48.027Z,119.17
2019-05-22T05:25:53.572Z,116.30
2019-05-22T05:28:30.787Z,121.20
2019-05-22T05:31:27.660Z,124.87
2019-05-22T05:43:47.847Z,129.60
2019-05-22T08:16:57.683Z,100.23
2019-05-22T17:43:11.907Z,6.63
2019-05-22T17:45:46.173Z,7.27
2019-05-22T17:48:19.054Z,7.23
2019-05-22T17:50:49.385Z,7.80
2019-05-22T17:53:23.198Z,11.37
2019-05-22T17:55:53.476Z,12.73
2019-05-22T17:58:27.205Z,8.17
2019-05-22T18:00:55.848Z,19.30
2019-05-22T18:03:35.972Z,9.37
2019-05-22T18:06:06.658Z,8.57
2019-05-22T18:08:36.862Z,8.03
2019-05-22T18:11:11.165Z,7.97
2019-05-22T18:13:59.457Z,6.17
2019-05-22T18:16:32.437Z,7.30
2019-05-22T18:19:07.750Z,6.73
2019-05-22T18:21:38.357Z,7.80
2019-05-22T18:24:11.019Z,6.30
2019-05-22T18:26:41.296Z,6.10
2019-05-22T18:29:11.141Z,11.63
2019-05-22T18:31:42.177Z,10.80
2019-05-22T18:34:12.331Z,14.63
2019-05-22T18:36:44.669Z,8.43
2019-05-22T18:39:16.370Z,10.77
2019-05-22T18:41:46.114Z,9.00
2019-05-22T18:44:15.888Z,9.27
2019-05-22T18:46:46.184Z,8.60
2019-05-22T18:49:18.308Z,9.83
2019-05-22T18:51:48.646Z,8.93
2019-05-22T18:54:19.186Z,9.30
2019-05-22T18:56:51.279Z,10.30
2019-05-22T18:59:21.148Z,8.73
2019-05-22T19:01:51.829Z,8.53
2019-05-22T19:04:22.339Z,9.97
2019-05-22T19:06:56.032Z,11.57
2019-05-22T19:09:26.563Z,12.63
2019-05-22T19:11:56.741Z,7.90
2019-05-22T19:14:28.139Z,12.33
2019-05-22T19:16:57.921Z,9.50
2019-05-22T19:19:28.616Z,8.73
2019-05-22T19:22:08.624Z,12.10
2019-05-22T19:24:40.278Z,11.77
2019-05-22T19:27:10.349Z,13.30
2019-05-22T19:29:40.537Z,11.07
2019-05-22T19:32:10.513Z,9.47
2019-05-22T19:34:42.535Z,16.30
2019-05-22T19:37:14.732Z,8.40
2019-05-22T19:39:45.058Z,10.60
2019-05-22T19:42:16.478Z,14.70
2019-05-22T19:44:46.789Z,8.97
2019-05-22T19:47:22.785Z,12.80
2019-05-22T19:49:53.155Z,13.87
2019-05-22T19:52:40.478Z,11.57
2019-05-22T19:54:56.869Z,16.97
2019-05-22T19:57:27.649Z,12.30
2019-05-22T19:59:57.401Z,9.80
2019-05-22T20:02:28.086Z,10.37
2019-05-22T20:05:02.340Z,12.90
2019-05-22T20:07:38.493Z,10.63
2019-05-22T20:10:11.129Z,10.60
2019-05-22T20:12:41.253Z,13.77
2019-05-22T20:15:23.282Z,19.00
2019-05-22T20:17:53.351Z,11.77
2019-05-22T20:20:30.793Z,11.50
2019-05-22T20:23:00.833Z,10.43
2019-05-22T20:25:32.746Z,11.13
2019-05-22T20:28:04.965Z,16.87
2019-05-22T20:30:36.564Z,18.93
2019-05-22T20:33:22.103Z,15.40
2019-05-22T20:35:58.613Z,15.93
2019-05-22T20:38:28.569Z,17.20
2019-05-22T20:40:58.743Z,16.23
2019-05-22T20:43:33.641Z,18.60
2019-05-22T20:46:04.961Z,19.33
2019-05-22T20:48:35.025Z,16.20
2019-05-22T20:51:09.174Z,14.77
2019-05-22T20:53:53.742Z,13.87
2019-05-22T20:56:16.465Z,14.30
2019-05-22T20:58:48.267Z,17.37
2019-05-22T21:01:22.883Z,16.77
2019-05-22T21:03:54.335Z,15.20
2019-05-22T21:06:26.909Z,16.07
2019-05-22T21:08:58.321Z,16.40
2019-05-22T21:11:29.998Z,19.03
2019-05-22T21:14:00.226Z,17.57
2019-05-22T21:16:32.906Z,18.20
2019-05-22T21:19:03.324Z,17.67
2019-05-22T21:21:35.209Z,20.23
2019-05-22T21:24:11.500Z,15.97
2019-05-22T21:26:39.257Z,10.57
2019-05-22T21:29:17.649Z,12.77
2019-05-22T21:31:48.745Z,15.47
2019-05-22T21:34:30.541Z,12.80
2019-05-22T21:37:01.193Z,18.93
2019-05-22T21:39:37.934Z,15.97
2019-05-22T21:42:09.848Z,12.63
2019-05-22T21:44:40.007Z,15.07
2019-05-22T21:47:11.359Z,14.93
2019-05-22T21:49:42.670Z,27.33
2019-05-22T21:52:14.521Z,17.53
2019-05-22T21:54:46.761Z,17.60
2019-05-22T21:57:19.985Z,18.60
2019-05-22T21:59:50.091Z,16.47
2019-05-22T22:02:26.601Z,20.47
2019-05-22T22:04:57.985Z,20.60
2019-05-22T22:07:30.518Z,21.53
2019-05-22T22:10:01.198Z,23.80
2019-05-22T22:12:38.535Z,24.23
2019-05-22T22:15:10.662Z,17.07
2019-05-22T22:17:42.018Z,14.93
2019-05-22T22:20:13.697Z,18.57
2019-05-22T22:22:43.872Z,14.50
2019-05-22T22:25:22.139Z,20.77
2019-05-22T22:27:53.060Z,20.77
2019-05-22T22:30:27.618Z,21.33
2019-05-22T22:33:07.057Z,19.40
2019-05-22T22:35:37.253Z,22.80
2019-05-22T22:38:09.105Z,20.93
2019-05-22T22:40:42.965Z,18.90
2019-05-22T22:43:14.056Z,23.03
2019-05-22T22:45:48.199Z,21.90
2019-05-22T22:48:23.531Z,20.97
2019-05-22T22:50:55.769Z,19.37
2019-05-22T22:53:33.801Z,17.87
2019-05-22T22:56:04.657Z,16.00
2019-05-22T22:58:35.725Z,14.70
2019-05-22T23:01:10.772Z,11.07
2019-05-22T23:03:46.196Z,16.40
2019-05-22T23:06:17.507Z,14.47
2019-05-22T23:08:52.029Z,13.90
2019-05-22T23:11:22.477Z,10.70
2019-05-22T23:13:52.857Z,15.23
2019-05-22T23:16:25.649Z,17.73
2019-05-22T23:19:13.098Z,12.90
2019-05-22T23:21:41.592Z,12.90
2019-05-22T23:24:28.862Z,14.00
2019-05-22T23:26:59.590Z,20.80
2019-05-22T23:29:31.037Z,14.17
2019-05-22T23:32:03.773Z,18.57
2019-05-22T23:34:33.857Z,21.93
2019-05-22T23:37:03.635Z,16.77
2019-05-22T23:39:36.022Z,26.80
2019-05-22T23:42:12.816Z,18.37
2019-05-22T23:44:47.517Z,19.33
2019-05-22T23:47:18.070Z,18.37
2019-05-22T23:49:49.417Z,23.47
2019-05-22T23:52:19.959Z,21.00
2019-05-22T23:54:55.930Z,16.53
2019-05-22T23:57:28.106Z,17.70
2019-05-22T23:59:58.728Z,14.80
